East Windsor, Massachusetts
Current Conditions -  °F | °C
As of 5:54 PM on Friday 28 Nov 2014 (Local Time) from KPSF Reporting Station
Broken Clouds Broken Clouds  
Wind Chill: 13°   Ceiling: 3400
Heat Index: 21°   Visibility: 10mi
Dew Point: 12°   Wind: 6mph
Humidity: 68%   Direction: 250°WSW
Pressure: 30.12"   Gusts: NA
Location:  42.5137°N, 73.043°W
Report Text: KPSF 282254Z AUTO 25005KT 10SM BKN034 M06/M11 A3012 RMK AO2 SLP218 T10611111
Loading
Personal Weather Stations






























Interactive Weather Map New forecast layout! Learn more

10-Day Weather Forecast

Advertisements
Track Severe Weather on mobile